Time;durP1;ratioP1;P1;durP2;ratioP2;P2;SDS_P1;SDS_P2;PMS_P1;PMS_P2;Temp;Humidity;BMP_temperature;BMP_pressure;BME280_temperature;BME280_humidity;BME280_pressure;Samples;Min_cycle;Max_cycle;Signal;HPM_P1;HPM_P2
2021/07/14 00:01:34;;;;;;;17.27;15.63;;;;;;;20.85;98.76;100116.53;5003789;28;20050;-85
2021/07/14 00:04:03;;;;;;;20.00;17.95;;;;;;;20.87;98.73;100122.63;5003958;28;20161;-85
2021/07/14 00:06:31;;;;;;;21.27;19.13;;;;;;;20.87;98.91;100113.78;4990898;28;20137;-86
2021/07/14 00:08:57;;;;;;;22.23;18.75;;;;;;;20.90;98.49;100118.91;4988988;28;20109;-85
2021/07/14 00:11:27;;;;;;;20.55;18.55;;;;;;;20.91;98.68;100112.63;4993592;28;20522;-86
2021/07/14 00:14:14;;;;;;;20.63;18.67;;;;;;;20.88;98.78;100111.03;5016619;28;20041;-85
2021/07/14 00:22:14;;;;;;;22.20;20.00;;;;;;;20.88;98.82;100115.50;4989040;28;20033;-85
2021/07/14 00:24:42;;;;;;;19.70;17.65;;;;;;;20.85;98.71;100115.69;5010694;28;20037;-85
2021/07/14 00:27:10;;;;;;;17.73;15.95;;;;;;;20.82;99.17;100119.41;4991169;28;20042;-85
2021/07/14 00:29:40;;;;;;;20.75;18.75;;;;;;;20.81;99.21;100121.19;5008173;28;20046;-85
2021/07/14 00:32:08;;;;;;;21.73;19.50;;;;;;;20.81;99.27;100109.69;5003024;28;20141;-86
2021/07/14 00:34:34;;;;;;;21.42;19.33;;;;;;;20.79;99.17;100111.59;5010960;28;20431;-85
2021/07/14 00:37:01;;;;;;;20.92;18.83;;;;;;;20.76;99.43;100112.63;4989634;28;20057;-85
2021/07/14 00:39:28;;;;;;;21.20;19.10;;;;;;;20.75;99.30;100110.91;5003036;28;20489;-85
2021/07/14 00:41:54;;;;;;;20.55;18.65;;;;;;;20.75;99.59;100113.56;4994566;28;20421;-85
2021/07/14 00:44:23;;;;;;;19.45;17.40;;;;;;;20.75;99.51;100112.72;4990593;28;20037;-85
2021/07/14 00:46:52;;;;;;;19.30;17.35;;;;;;;20.72;99.72;100113.75;4986779;28;20042;-86
2021/07/14 00:49:19;;;;;;;22.02;19.73;;;;;;;20.72;99.46;100115.56;5006137;28;20089;-86
2021/07/14 00:51:47;;;;;;;21.60;19.42;;;;;;;20.70;99.78;100106.81;4991412;28;20153;-86
2021/07/14 00:54:15;;;;;;;21.33;19.23;;;;;;;20.69;99.96;100105.06;5006605;28;20041;-86
2021/07/14 00:56:41;;;;;;;21.65;19.38;;;;;;;20.65;99.78;100112.41;4989166;28;20050;-85
2021/07/14 00:59:08;;;;;;;21.55;19.35;;;;;;;20.63;99.93;100116.94;5006435;28;20042;-85
2021/07/14 01:01:35;;;;;;;21.90;19.65;;;;;;;20.61;99.62;100118.81;5005641;28;20057;-85
2021/07/14 01:04:19;;;;;;;18.98;17.25;;;;;;;20.57;99.85;100112.84;5003997;28;20042;-85
2021/07/14 01:07:13;;;;;;;22.38;20.15;;;;;;;20.55;99.84;100112.06;5022381;28;20049;-85
2021/07/14 01:09:53;;;;;;;;;;;;;;;20.50;99.98;100112.34;5007616;28;20053;-85
2021/07/14 01:12:30;;;;;;;22.75;20.42;;;;;;;20.48;99.50;100116.91;5002689;28;20024;-85
2021/07/14 01:15:08;;;;;;;20.35;18.25;;;;;;;20.45;99.51;100117.06;5000277;28;20038;-85
2021/07/14 01:17:47;;;;;;;22.20;19.90;;;;;;;20.43;99.82;100116.31;5009767;28;20048;-85
2021/07/14 01:20:34;;;;;;;20.13;17.65;;;;;;;20.41;99.76;100114.69;5006811;28;20038;-85
2021/07/14 01:23:31;;;;;;;20.15;18.23;;;;;;;20.37;100.00;100114.00;5024194;28;20073;-85
2021/07/14 01:26:06;;;;;;;20.70;18.60;;;;;;;20.35;99.72;100109.72;5006035;28;20041;-85
2021/07/14 01:28:36;;;;;;;22.45;20.05;;;;;;;20.35;99.92;100112.38;5026370;28;20393;-85
2021/07/14 01:31:03;;;;;;;22.60;19.10;;;;;;;20.33;99.84;100108.00;4990319;28;20354;-85
2021/07/14 01:33:38;;;;;;;22.48;19.13;;;;;;;20.32;100.00;100106.31;5007825;28;20038;-85
2021/07/14 01:36:15;;;;;;;21.92;19.60;;;;;;;20.30;100.00;100097.56;4995045;28;20050;-85
2021/07/14 01:38:45;;;;;;;21.40;19.17;;;;;;;20.32;100.00;100097.47;5023062;28;20041;-85
2021/07/14 01:41:22;;;;;;;22.60;20.15;;;;;;;20.33;99.72;100097.38;5012894;28;20058;-85
2021/07/14 01:43:53;;;;;;;23.73;19.75;;;;;;;20.32;99.95;100093.03;4990923;28;20061;-86
2021/07/14 01:46:23;;;;;;;20.90;18.75;;;;;;;20.31;99.95;100095.75;4993987;28;20045;-85
2021/07/14 01:48:51;;;;;;;26.17;22.38;;;;;;;20.29;100.00;100081.72;5001957;28;20053;-85
2021/07/14 01:51:19;;;;;;;26.83;21.00;;;;;;;20.30;100.00;100075.47;5005407;28;20128;-86
2021/07/14 01:53:46;;;;;;;23.10;20.63;;;;;;;20.30;100.00;100072.81;4996064;28;20436;-86
2021/07/14 01:56:13;;;;;;;26.50;23.60;;;;;;;20.29;100.00;100069.28;5009052;28;20049;-86
2021/07/14 01:58:47;;;;;;;23.52;20.90;;;;;;;20.29;100.00;100071.09;4994949;28;20076;-86
2021/07/14 02:01:19;;;;;;;26.35;22.27;;;;;;;20.25;100.00;100065.09;4994775;28;20042;-85
2021/07/14 02:06:40;;;;;;;21.88;19.40;;;;;;;20.25;100.00;100066.91;5010244;28;20479;-86
2021/07/14 02:09:07;;;;;;;28.58;22.63;;;;;;;20.21;100.00;100063.56;4994931;28;20049;-86
2021/07/14 02:11:34;;;;;;;23.27;19.92;;;;;;;20.17;100.00;100056.72;4990473;28;20055;-86
2021/07/14 02:14:03;;;;;;;22.90;20.38;;;;;;;20.16;100.00;100050.53;5004757;28;20063;-86
2021/07/14 02:16:31;;;;;;;24.38;21.48;;;;;;;20.16;100.00;100050.53;4992367;28;20047;-86
2021/07/14 02:19:02;;;;;;;23.67;21.10;;;;;;;20.13;100.00;100042.75;5007180;28;20045;-86
2021/07/14 02:21:29;;;;;;;23.67;21.17;;;;;;;20.10;100.00;100048.25;5006662;28;20042;-86
2021/07/14 02:23:55;;;;;;;32.40;22.67;;;;;;;20.07;100.00;100042.25;5010487;28;20848;-86
2021/07/14 02:26:22;;;;;;;26.58;23.10;;;;;;;20.00;100.00;100044.44;4991795;28;20046;-86
2021/07/14 02:28:49;;;;;;;25.60;21.48;;;;;;;19.95;100.00;100054.47;5008791;28;20053;-86
2021/07/14 02:31:15;;;;;;;32.38;22.40;;;;;;;19.91;100.00;100042.31;5002721;28;20065;-85
2021/07/14 02:33:42;;;;;;;29.05;23.05;;;;;;;19.87;100.00;100043.41;4990489;28;20042;-86
2021/07/14 02:36:14;;;;;;;24.80;21.75;;;;;;;19.85;100.00;100040.84;4992633;28;20050;-86
2021/07/14 02:38:46;;;;;;;27.02;21.42;;;;;;;19.86;100.00;100039.91;5006192;28;20054;-86
2021/07/14 02:41:33;;;;;;;27.90;21.38;;;;;;;19.86;100.00;100047.88;5007784;28;20037;-85
2021/07/14 02:44:11;;;;;;;27.10;22.35;;;;;;;19.87;100.00;100049.59;5004038;28;20100;-86
2021/07/14 02:46:43;;;;;;;26.33;20.55;;;;;;;19.87;100.00;100052.25;5008613;28;20072;-85
2021/07/14 02:49:13;;;;;;;23.00;20.38;;;;;;;19.86;100.00;100045.22;5002350;28;20049;-85
2021/07/14 02:51:44;;;;;;;24.20;20.95;;;;;;;19.88;100.00;100045.13;5009171;28;20085;-85
2021/07/14 02:54:22;;;;;;;28.80;22.48;;;;;;;19.87;100.00;100046.06;5006687;28;20092;-85
2021/07/14 02:56:53;;;;;;;28.10;21.83;;;;;;;19.88;100.00;100045.13;5006856;28;20436;-85
2021/07/14 02:59:26;;;;;;;29.48;22.95;;;;;;;19.89;100.00;100050.34;4995579;28;20057;-86
2021/07/14 03:01:55;;;;;;;;;;;;;;;19.89;100.00;100049.50;5007343;28;20050;-86
2021/07/14 03:04:33;;;;;;;27.25;21.48;;;;;;;19.88;100.00;100058.41;4988077;28;20391;-85
2021/07/14 03:07:04;;;;;;;24.45;21.83;;;;;;;19.89;100.00;100050.34;4990997;28;20046;-85
2021/07/14 03:09:38;;;;;;;29.15;22.15;;;;;;;19.91;100.00;100047.63;4993792;28;20050;-85
2021/07/14 03:12:06;;;;;;;;;;;;;;;19.92;100.00;100036.03;5001228;28;20042;-85
2021/07/14 03:14:37;;;;;;;26.08;20.92;;;;;;;19.90;100.00;100045.91;5006795;28;19925;-85
2021/07/14 03:17:06;;;;;;;27.00;22.08;;;;;;;19.87;100.00;100052.25;4993628;28;20039;-85
2021/07/14 03:19:34;;;;;;;26.20;22.60;;;;;;;19.85;100.00;100050.63;5001186;28;20046;-85
2021/07/14 03:22:05;;;;;;;31.65;25.83;;;;;;;19.83;100.00;100058.69;4991354;28;20088;-85
2021/07/14 03:24:36;;;;;;;23.50;21.00;;;;;;;19.83;100.00;100074.63;5005036;28;20046;-85
2021/07/14 03:27:06;;;;;;;29.13;24.27;;;;;;;19.83;100.00;100075.47;5009540;28;20527;-85
2021/07/14 03:29:34;;;;;;;27.63;21.65;;;;;;;19.85;100.00;100078.03;5000896;28;20045;-85
2021/07/14 03:32:05;;;;;;;30.15;25.23;;;;;;;19.89;100.00;100068.09;5008651;28;20038;-85
2021/07/14 03:34:33;;;;;;;30.88;25.38;;;;;;;19.87;100.00;100075.28;5001389;28;20125;-85
2021/07/14 03:37:04;;;;;;;29.63;23.95;;;;;;;19.86;100.00;100085.06;5008020;28;20121;-86
2021/07/14 03:39:33;;;;;;;31.65;25.80;;;;;;;19.88;100.00;100071.69;4989861;28;20200;-85
2021/07/14 03:42:01;;;;;;;36.20;26.60;;;;;;;19.90;100.00;100077.78;4991281;28;20119;-85
2021/07/14 03:44:28;;;;;;;36.60;27.15;;;;;;;19.91;100.00;100079.50;4990084;28;20068;-85
2021/07/14 03:47:07;;;;;;;;;;;;;;;;;;;;;
2021/07/14 03:49:35;;;;;;;34.35;26.63;;;;;;;19.91;100.00;100092.78;5011816;28;20061;-85
2021/07/14 03:52:03;;;;;;;33.22;25.17;;;;;;;19.89;100.00;100100.81;5006736;28;20037;-85
2021/07/14 03:54:31;;;;;;;36.88;26.65;;;;;;;19.88;100.00;100101.78;4992392;28;20050;-85
2021/07/14 03:57:04;;;;;;;40.20;26.85;;;;;;;19.87;100.00;100099.19;4992909;28;20050;-85
2021/07/14 03:59:32;;;;;;;32.63;26.55;;;;;;;19.86;100.00;100094.84;4992057;28;20558;-85
2021/07/14 04:02:00;;;;;;;35.33;27.55;;;;;;;19.87;100.00;100101.84;4990672;28;20716;-85
2021/07/14 04:04:27;;;;;;;39.50;29.23;;;;;;;19.86;100.00;100101.00;4988166;28;20049;-85
2021/07/14 04:06:59;;;;;;;37.20;28.80;;;;;;;19.87;100.00;100101.84;5006357;28;20919;-85
2021/07/14 04:09:27;;;;;;;34.00;25.55;;;;;;;19.87;100.00;100099.19;5008041;28;20045;-85
2021/07/14 04:12:00;;;;;;;40.42;28.92;;;;;;;19.89;100.00;100098.16;4988324;28;20501;-85
2021/07/14 04:14:29;;;;;;;35.08;27.67;;;;;;;19.88;100.00;100098.25;5005472;28;20100;-86
2021/07/14 04:16:58;;;;;;;40.45;29.27;;;;;;;19.89;100.00;100092.00;4987549;28;20396;-85
2021/07/14 04:19:25;;;;;;;41.13;30.85;;;;;;;19.86;100.00;100087.72;5022817;28;20136;-85
2021/07/14 04:21:52;;;;;;;41.20;28.75;;;;;;;19.86;100.00;100085.06;4993065;28;20133;-85
2021/07/14 04:24:21;;;;;;;52.95;32.25;;;;;;;19.85;100.00;100078.03;5005318;28;20038;-86
2021/07/14 04:26:48;;;;;;;48.90;32.17;;;;;;;19.83;100.00;100086.09;4986801;28;20054;-85
2021/07/14 04:29:15;;;;;;;43.67;30.60;;;;;;;19.83;100.00;100088.75;4999666;28;20050;-85
2021/07/14 04:31:44;;;;;;;43.67;32.55;;;;;;;19.82;100.00;100087.03;5000529;28;20085;-85
2021/07/14 04:34:10;;;;;;;46.20;30.48;;;;;;;19.82;100.00;100084.38;5004905;28;20485;-85
2021/07/14 04:36:38;;;;;;;40.72;29.02;;;;;;;19.84;100.00;100086.94;5005208;28;20109;-85
2021/07/14 04:39:07;;;;;;;39.65;29.02;;;;;;;19.87;100.00;100085.91;4998568;28;20055;-85
2021/07/14 04:41:35;;;;;;;41.25;28.60;;;;;;;19.88;100.00;100077.88;5008633;28;20049;-84
2021/07/14 04:44:03;;;;;;;42.72;30.77;;;;;;;19.92;100.00;100082.06;5000816;28;20497;-85
2021/07/14 04:46:33;;;;;;;41.42;30.30;;;;;;;19.96;100.00;100083.59;4983489;28;20049;-85
2021/07/14 04:49:01;;;;;;;39.33;27.05;;;;;;;19.98;100.00;100079.03;5011207;28;20591;-86
2021/07/14 04:51:28;;;;;;;41.67;31.02;;;;;;;20.02;100.00;100081.53;5009550;28;20123;-86
2021/07/14 04:53:55;;;;;;;45.65;32.67;;;;;;;20.03;100.00;100073.47;4994207;28;20129;-86
2021/07/14 04:56:22;;;;;;;45.10;32.45;;;;;;;20.05;100.00;100068.94;4992090;28;20053;-86
2021/07/14 04:58:50;;;;;;;47.97;32.08;;;;;;;20.06;100.00;100070.63;4998294;28;20050;-86
2021/07/14 05:01:18;;;;;;;41.65;30.17;;;;;;;20.08;100.00;100068.75;5005536;28;20058;-84
2021/07/14 05:03:47;;;;;;;41.28;29.05;;;;;;;20.08;100.00;100063.44;5010422;28;20045;-85
2021/07/14 05:06:16;;;;;;;42.42;30.33;;;;;;;20.11;100.00;100060.56;5008103;28;20061;-84
2021/07/14 05:08:44;;;;;;;39.28;31.23;;;;;;;20.12;100.00;100062.28;5005248;28;20062;-85
2021/07/14 05:11:13;;;;;;;42.53;30.73;;;;;;;20.13;100.00;100061.34;5008839;28;20066;-84
2021/07/14 05:13:44;;;;;;;39.60;28.90;;;;;;;20.15;100.00;100059.47;5011897;28;20076;-85
2021/07/14 05:16:11;;;;;;;43.35;32.15;;;;;;;20.15;100.00;100055.94;5008512;28;20097;-85
2021/07/14 05:18:38;;;;;;;37.85;29.45;;;;;;;20.14;100.00;100056.88;4996583;28;20078;-85
2021/07/14 05:21:06;;;;;;;32.15;26.23;;;;;;;20.14;100.00;100064.84;5014264;28;20100;-84
2021/07/14 05:23:35;;;;;;;41.15;30.75;;;;;;;20.14;100.00;100060.41;4997264;28;20587;-84
2021/07/14 05:26:02;;;;;;;42.97;32.42;;;;;;;20.16;100.00;100057.66;5002663;28;20518;-84
2021/07/14 05:28:29;;;;;;;45.00;30.48;;;;;;;20.16;100.00;100063.81;5009959;28;20734;-85
2021/07/14 05:30:56;;;;;;;43.30;34.63;;;;;;;20.19;100.00;100061.94;5000110;28;20057;-85
2021/07/14 05:33:24;;;;;;;49.28;32.88;;;;;;;20.24;100.00;100065.19;5009207;28;20049;-84
2021/07/14 05:35:54;;;;;;;41.70;33.42;;;;;;;20.26;100.00;100063.28;4996861;28;20049;-84
2021/07/14 05:38:22;;;;;;;45.90;30.48;;;;;;;20.29;100.00;100065.78;5010880;28;20141;-84
2021/07/14 05:40:50;;;;;;;40.65;32.95;;;;;;;20.36;100.00;100066.25;4997153;28;20062;-84
2021/07/14 05:43:18;;;;;;;43.85;33.60;;;;;;;20.40;100.00;100084.63;4993932;28;20053;-85
2021/07/14 05:45:46;;;;;;;42.22;31.05;;;;;;;20.43;100.00;100088.88;4993396;28;20065;-84
2021/07/14 05:48:13;;;;;;;43.83;30.58;;;;;;;20.46;100.00;100094.84;5014529;28;20073;-84
2021/07/14 05:50:40;;;;;;;33.90;28.67;;;;;;;20.48;100.00;100098.28;4990357;28;20049;-85
2021/07/14 05:53:07;;;;;;;39.90;31.48;;;;;;;20.53;99.96;100098.00;4996044;28;20408;-85
2021/07/14 05:55:34;;;;;;;34.97;27.95;;;;;;;20.56;99.48;100094.31;4993486;28;20138;-85
2021/07/14 05:58:01;;;;;;;38.08;30.85;;;;;;;20.56;99.69;100099.63;4996145;28;20048;-85
2021/07/14 06:00:29;;;;;;;35.63;26.40;;;;;;;20.56;99.69;100104.94;5008179;28;20504;-86
2021/07/14 06:02:57;;;;;;;37.85;29.13;;;;;;;20.59;99.63;100107.44;5007152;28;20130;-85
2021/07/14 06:05:24;;;;;;;40.00;28.65;;;;;;;20.61;99.48;100103.75;5000208;28;20073;-86
2021/07/14 06:07:56;;;;;;;32.67;26.63;;;;;;;20.63;99.42;100093.84;5019705;28;20128;-85
2021/07/14 06:10:23;;;;;;;30.27;26.23;;;;;;;20.63;99.49;100093.84;5012354;28;20045;-86
2021/07/14 06:12:55;;;;;;;33.35;26.33;;;;;;;20.61;99.64;100093.09;4998299;28;20056;-85
2021/07/14 06:15:24;;;;;;;33.83;28.73;;;;;;;20.56;100.00;100083.66;5009097;28;20129;-85
2021/07/14 06:17:52;;;;;;;40.53;27.92;;;;;;;20.53;100.00;100084.72;5015126;28;20112;-85
2021/07/14 06:20:19;;;;;;;32.05;26.48;;;;;;;20.45;100.00;100086.97;5023570;28;20129;-87
2021/07/14 06:22:46;;;;;;;36.25;27.55;;;;;;;20.38;100.00;100093.63;5013609;28;20124;-86
2021/07/14 06:25:14;;;;;;;36.67;29.10;;;;;;;20.33;100.00;100088.56;4995046;28;20034;-87
2021/07/14 06:27:44;;;;;;;32.55;26.95;;;;;;;20.30;100.00;100091.41;5011520;28;20045;-85
2021/07/14 06:30:13;;;;;;;35.25;28.33;;;;;;;20.26;100.00;100097.81;4997957;28;20049;-86
2021/07/14 06:32:41;;;;;;;29.85;23.48;;;;;;;20.22;100.00;100094.53;5006438;28;20137;-86
2021/07/14 06:35:13;;;;;;;31.75;26.55;;;;;;;20.22;100.00;100107.81;4994941;28;20042;-85
2021/07/14 06:37:40;;;;;;;30.27;26.25;;;;;;;20.22;100.00;100104.28;5012283;28;20448;-86
2021/07/14 06:40:10;;;;;;;37.47;26.92;;;;;;;20.24;100.00;100105.06;4995708;28;20049;-85
2021/07/14 06:42:38;;;;;;;32.92;26.17;;;;;;;20.25;100.00;100107.63;4994932;28;20507;-86
2021/07/14 06:45:09;;;;;;;32.88;28.98;;;;;;;20.28;100.00;100104.75;5009999;28;20052;-85
2021/07/14 06:47:37;;;;;;;36.50;28.05;;;;;;;20.29;100.00;100095.84;4997015;28;20113;-86
2021/07/14 06:50:07;;;;;;;32.10;25.65;;;;;;;20.32;100.00;100100.13;4997093;28;20072;-86
2021/07/14 06:52:33;;;;;;;29.20;26.17;;;;;;;20.32;100.00;100098.34;5010044;28;20655;-85
2021/07/14 06:55:00;;;;;;;28.20;24.83;;;;;;;20.33;100.00;100089.41;5010456;28;20042;-86
2021/07/14 06:57:27;;;;;;;27.15;24.25;;;;;;;20.35;100.00;100093.78;5013246;28;20500;-85
2021/07/14 06:59:54;;;;;;;25.83;23.00;;;;;;;20.33;100.00;100094.72;5001593;28;20084;-86
2021/07/14 07:02:22;;;;;;;25.63;22.63;;;;;;;20.33;100.00;100094.72;5011344;28;20070;-85
2021/07/14 07:04:48;;;;;;;30.20;25.92;;;;;;;20.35;100.00;100091.13;5014303;28;20064;-85
2021/07/14 07:07:15;;;;;;;26.65;23.75;;;;;;;20.36;100.00;100087.53;5015784;28;20041;-85
2021/07/14 07:09:45;;;;;;;29.33;25.13;;;;;;;20.40;100.00;100068.66;5012256;28;20042;-86
2021/07/14 07:12:11;;;;;;;29.02;25.02;;;;;;;20.52;100.00;100061.75;5016382;28;20111;-86
2021/07/14 07:14:40;;;;;;;27.15;23.73;;;;;;;20.71;100.00;100061.50;5013910;28;20038;-86
2021/07/14 07:17:10;;;;;;;27.60;23.85;;;;;;;20.81;100.00;100070.63;5011170;28;20062;-86
2021/07/14 07:19:37;;;;;;;28.33;25.33;;;;;;;20.90;100.00;100065.69;5013367;28;20057;-87
2021/07/14 07:22:04;;;;;;;27.25;22.95;;;;;;;21.04;100.00;100060.41;5013799;28;20054;-86
2021/07/14 07:24:36;;;;;;;24.92;22.15;;;;;;;21.31;99.60;100062.25;5011126;28;20101;-86
2021/07/14 07:27:04;;;;;;;25.73;22.92;;;;;;;21.61;98.44;100064.78;5012672;28;20487;-86
2021/07/14 07:29:31;;;;;;;25.98;22.25;;;;;;;21.80;96.98;100069.78;5014351;28;20496;-86
2021/07/14 07:32:00;;;;;;;25.02;21.83;;;;;;;21.98;96.37;100066.88;5013238;28;20045;-86
2021/07/14 07:34:27;;;;;;;26.00;20.98;;;;;;;22.10;95.71;100057.22;5011426;28;20057;-86
2021/07/14 07:36:54;;;;;;;24.05;21.55;;;;;;;22.12;95.23;100050.81;5011051;28;20065;-86
2021/07/14 07:39:20;;;;;;;22.92;20.05;;;;;;;22.11;94.62;100049.13;5012336;28;20045;-86
2021/07/14 07:41:49;;;;;;;22.10;19.20;;;;;;;22.12;94.78;100048.16;5009554;28;20413;-86
2021/07/14 07:44:15;;;;;;;21.38;19.17;;;;;;;22.27;94.36;100059.59;5008035;28;20434;-86
2021/07/14 07:46:43;;;;;;;22.40;19.90;;;;;;;22.36;93.66;100050.16;4990749;28;21351;-85
2021/07/14 07:49:10;;;;;;;22.33;20.02;;;;;;;22.44;92.83;100044.28;5009134;28;20129;-86
2021/07/14 07:51:37;;;;;;;19.67;17.63;;;;;;;22.51;92.47;100044.72;5008267;28;20046;-86
2021/07/14 07:54:04;;;;;;;22.00;19.75;;;;;;;22.49;92.17;100044.84;4991876;28;20053;-85
2021/07/14 07:56:34;;;;;;;20.83;18.67;;;;;;;22.40;92.50;100048.13;4992844;28;20069;-86
2021/07/14 07:59:03;;;;;;;19.77;17.02;;;;;;;22.26;92.65;100049.88;5005265;28;20054;-85
2021/07/14 08:01:31;;;;;;;18.55;16.75;;;;;;;22.09;92.97;100053.69;5006215;28;23733;-85
2021/07/14 08:03:58;;;;;;;21.75;19.52;;;;;;;21.94;93.67;100052.91;4991744;28;20052;-85
2021/07/14 08:06:24;;;;;;;24.67;19.70;;;;;;;21.78;93.81;100049.53;4991904;28;20048;-85
2021/07/14 08:08:51;;;;;;;20.45;18.23;;;;;;;21.68;94.19;100059.06;5009542;28;20084;-85
2021/07/14 08:11:18;;;;;;;24.05;19.40;;;;;;;21.59;94.95;100057.84;5006789;28;20053;-85
2021/07/14 08:13:47;;;;;;;22.25;20.05;;;;;;;21.49;95.36;100052.25;5012184;28;20084;-85
2021/07/14 08:16:14;;;;;;;22.02;18.23;;;;;;;21.41;95.77;100065.22;5012734;28;20067;-85
2021/07/14 08:18:41;;;;;;;19.17;17.20;;;;;;;21.36;96.36;100062.81;5012092;28;20045;-85
2021/07/14 08:21:08;;;;;;;20.35;18.15;;;;;;;21.33;96.08;100068.34;5011251;28;20042;-85
2021/07/14 08:23:34;;;;;;;18.45;16.55;;;;;;;21.31;96.48;100071.13;4991207;28;20076;-84
2021/07/14 08:26:03;;;;;;;22.48;20.10;;;;;;;21.33;96.58;100076.34;4992472;28;20042;-85
2021/07/14 08:28:29;;;;;;;21.27;19.15;;;;;;;21.42;96.28;100077.53;4992291;28;20140;-85
2021/07/14 08:30:56;;;;;;;23.40;18.85;;;;;;;21.58;95.62;100075.66;4992349;28;20467;-85
2021/07/14 08:33:28;;;;;;;20.33;18.33;;;;;;;21.76;94.79;100078.09;4993535;28;20436;-85
2021/07/14 08:35:54;;;;;;;21.08;18.92;;;;;;;21.95;94.00;100078.59;5006508;28;20053;-85
2021/07/14 08:38:22;;;;;;;20.75;18.60;;;;;;;22.23;93.06;100074.09;4992415;28;20045;-84
2021/07/14 08:40:53;;;;;;;22.55;20.25;;;;;;;22.58;91.31;100067.34;4991514;28;20100;-85
2021/07/14 08:43:21;;;;;;;22.77;20.42;;;;;;;22.95;89.97;100078.13;5008056;28;20056;-86
2021/07/14 08:45:48;;;;;;;20.23;18.13;;;;;;;23.25;88.29;100074.28;5008083;28;20046;-84
2021/07/14 08:48:16;;;;;;;18.88;17.08;;;;;;;23.49;86.72;100068.97;5009958;28;20131;-85
2021/07/14 08:50:44;;;;;;;18.50;16.63;;;;;;;23.79;85.47;100062.34;4992730;28;20119;-85
2021/07/14 08:53:24;;;;;;;19.45;16.88;;;;;;;23.94;84.34;100063.09;4988156;28;20039;-85
2021/07/14 08:55:53;;;;;;;16.48;14.98;;;;;;;23.81;84.73;100072.97;5007085;28;20392;-85
2021/07/14 08:58:24;;;;;;;14.68;13.27;;;;;;;23.62;85.86;100071.63;5005577;28;20045;-85
2021/07/14 09:00:55;;;;;;;15.05;13.55;;;;;;;23.40;86.18;100069.66;5006628;28;20069;-85
2021/07/14 09:03:24;;;;;;;16.85;13.88;;;;;;;23.14;86.82;100061.72;4986990;28;20046;-85
2021/07/14 09:05:50;;;;;;;14.18;12.55;;;;;;;22.91;87.87;100069.47;5014194;28;20379;-85
2021/07/14 09:08:17;;;;;;;14.48;11.95;;;;;;;22.74;88.83;100068.00;5005834;28;20066;-85
2021/07/14 09:10:46;;;;;;;13.27;11.98;;;;;;;22.55;89.38;100059.56;5005144;28;20141;-86
2021/07/14 09:13:14;;;;;;;11.95;10.45;;;;;;;22.49;89.30;100052.84;5003605;28;20591;-86
2021/07/14 09:15:44;;;;;;;9.75;8.60;;;;;;;22.50;89.10;100049.19;4986080;28;20197;-86
2021/07/14 09:18:15;;;;;;;9.13;8.32;;;;;;;22.62;88.87;100055.53;5004004;28;20061;-86
2021/07/14 09:20:43;;;;;;;10.07;8.98;;;;;;;22.70;88.69;100063.84;4990153;28;20424;-86
2021/07/14 09:23:17;;;;;;;7.40;6.72;;;;;;;22.77;88.68;100073.09;5003789;28;20046;-86
2021/07/14 09:25:54;;;;;;;8.05;7.25;;;;;;;22.88;87.65;100076.84;5018604;28;20038;-86
2021/07/14 09:28:26;;;;;;;6.53;6.03;;;;;;;23.06;87.34;100078.25;4986678;28;20053;-86
2021/07/14 09:31:01;;;;;;;7.07;6.57;;;;;;;23.38;86.13;100071.59;5004870;28;20393;-86
2021/07/14 09:33:28;;;;;;;4.95;4.65;;;;;;;23.69;84.83;100062.19;4991470;28;20061;-86
2021/07/14 09:35:57;;;;;;;7.25;6.07;;;;;;;23.80;83.93;100066.75;5003387;28;20053;-86
2021/07/14 09:38:36;;;;;;;7.07;6.47;;;;;;;23.70;83.25;100079.06;5001648;28;20052;-85
2021/07/14 09:41:11;;;;;;;7.38;6.68;;;;;;;23.44;84.14;100076.47;5006126;28;20133;-85
2021/07/14 09:43:44;;;;;;;8.05;7.32;;;;;;;23.23;85.04;100070.88;5006629;28;20522;-85
2021/07/14 09:46:19;;;;;;;5.00;4.60;;;;;;;23.09;84.68;100071.84;5004655;28;20478;-85
2021/07/14 09:48:54;;;;;;;4.50;4.10;;;;;;;23.01;84.07;100067.03;5005105;28;20949;-85
2021/07/14 09:51:23;;;;;;;3.80;3.00;;;;;;;23.09;83.63;100069.16;5007361;28;20054;-85
2021/07/14 09:53:56;;;;;;;4.18;3.88;;;;;;;23.34;82.64;100065.63;5004612;28;20057;-85
2021/07/14 09:56:28;;;;;;;4.35;3.42;;;;;;;23.58;81.23;100068.34;5002846;28;20048;-84
2021/07/14 09:59:07;;;;;;;4.30;3.90;;;;;;;23.70;80.07;100071.06;5004852;28;20042;-85
2021/07/14 10:01:46;;;;;;;4.38;3.95;;;;;;;23.85;79.25;100064.59;5004719;28;20133;-85
2021/07/14 10:04:29;;;;;;;4.50;4.10;;;;;;;23.94;79.52;100049.72;4987978;28;20049;-86
2021/07/14 10:07:15;;;;;;;2.90;2.65;;;;;;;23.81;79.09;100046.22;5006652;28;20068;-85
2021/07/14 10:09:44;;;;;;;2.30;2.20;;;;;;;23.56;79.59;100054.22;5017084;28;20050;-86
2021/07/14 10:12:35;;;;;;;2.60;2.40;;;;;;;23.29;80.68;100054.41;5008539;28;20071;-86
2021/07/14 10:15:14;;;;;;;4.63;2.45;;;;;;;23.11;81.63;100064.56;4992153;28;20052;-86
2021/07/14 10:17:46;;;;;;;4.72;2.50;;;;;;;23.03;81.93;100062.44;5007209;28;20069;-86
2021/07/14 10:20:21;;;;;;;4.20;2.30;;;;;;;23.01;82.77;100072.38;5006974;28;20041;-85
2021/07/14 10:22:54;;;;;;;2.30;2.20;;;;;;;23.01;82.49;100064.38;5004091;28;20096;-85
2021/07/14 10:25:22;;;;;;;3.53;2.50;;;;;;;23.04;83.19;100053.47;5001910;28;20060;-86
2021/07/14 10:27:51;;;;;;;2.65;2.42;;;;;;;23.02;82.05;100058.03;5002070;28;20101;-84
2021/07/14 10:30:24;;;;;;;2.47;2.28;;;;;;;23.05;82.12;100059.63;5007550;28;20055;-86
2021/07/14 10:32:54;;;;;;;3.05;2.85;;;;;;;23.23;81.31;100044.16;4990727;28;20046;-85
2021/07/14 10:35:25;;;;;;;2.88;2.67;;;;;;;23.57;80.24;100041.72;5023314;28;20058;-85
2021/07/14 10:38:03;;;;;;;3.60;3.30;;;;;;;23.94;79.04;100044.38;5019426;28;20852;-85
2021/07/14 10:40:31;;;;;;;4.22;3.28;;;;;;;24.16;77.12;100043.59;4988084;28;20052;-85
2021/07/14 10:42:58;;;;;;;4.85;2.78;;;;;;;24.06;77.39;100048.78;4991520;28;20104;-85
2021/07/14 10:45:24;;;;;;;2.80;2.70;;;;;;;24.01;78.08;100053.63;5013362;28;20466;-86
2021/07/14 10:47:55;;;;;;;8.57;7.78;;;;;;;24.08;77.48;100056.72;4990639;28;20064;-85
2021/07/14 10:50:26;;;;;;;3.03;2.75;;;;;;;24.10;77.55;100055.59;5006234;28;20573;-86
2021/07/14 10:52:55;;;;;;;4.13;2.72;;;;;;;24.12;77.16;100060.84;5002231;28;20061;-84
2021/07/14 10:55:25;;;;;;;2.88;2.67;;;;;;;24.11;76.80;100065.34;4990556;28;20045;-85
2021/07/14 10:57:54;;;;;;;2.28;1.83;;;;;;;24.03;75.70;100066.91;5006324;28;20393;-84
2021/07/14 11:00:22;;;;;;;2.00;1.90;;;;;;;23.91;75.96;100066.84;5004418;28;20046;-85
2021/07/14 11:02:55;;;;;;;3.00;2.70;;;;;;;23.79;76.79;100068.56;4991606;28;20061;-85
2021/07/14 11:05:44;;;;;;;;;;;;;;;23.64;77.31;100072.38;5004655;28;20060;-85
2021/07/14 11:08:13;;;;;;;3.03;2.83;;;;;;;23.60;77.90;100066.38;4994083;28;19971;-85
2021/07/14 11:10:41;;;;;;;2.45;2.25;;;;;;;23.61;78.04;100057.41;5005196;28;20037;-85
2021/07/14 11:13:30;;;;;;;2.17;2.08;;;;;;;23.56;78.12;100070.25;5002094;28;21240;-85
2021/07/14 11:15:59;;;;;;;2.97;2.78;;;;;;;23.60;77.87;100076.22;4995315;28;20045;-85
2021/07/14 11:18:33;;;;;;;2.95;2.75;;;;;;;23.56;78.51;100085.44;4999009;28;20103;-85
2021/07/14 11:21:03;;;;;;;3.17;2.42;;;;;;;23.37;78.86;100086.75;5005189;28;20053;-85
2021/07/14 11:23:30;;;;;;;2.60;2.40;;;;;;;23.22;79.16;100087.84;5010746;28;20058;-85
2021/07/14 11:26:04;;;;;;;2.72;2.53;;;;;;;23.18;79.04;100089.91;5012481;28;20050;-86
2021/07/14 11:28:34;;;;;;;3.63;3.25;;;;;;;23.23;79.29;100081.53;5006034;28;20108;-86
2021/07/14 11:31:13;;;;;;;3.35;3.13;;;;;;;23.31;78.91;100081.00;4991125;28;20057;-85
2021/07/14 11:33:43;;;;;;;4.55;3.67;;;;;;;23.51;78.28;100090.25;5007725;28;20061;-85